sensor_id;sensor_type;location;lat;lon;timestamp;temperature;humidity
16966;DHT22;8599;47.852;12.070;2023-03-14T00:01:56;11.20;99.90
16966;DHT22;8599;47.852;12.070;2023-03-14T00:04:23;11.10;99.90
16966;DHT22;8599;47.852;12.070;2023-03-14T00:06:50;10.90;99.90
16966;DHT22;8599;47.852;12.070;2023-03-14T00:09:17;10.80;99.90
16966;DHT22;8599;47.852;12.070;2023-03-14T00:11:44;10.70;99.90
16966;DHT22;8599;47.852;12.070;2023-03-14T00:14:11;10.60;99.90
16966;DHT22;8599;47.852;12.070;2023-03-14T00:16:39;10.50;99.90
16966;DHT22;8599;47.852;12.070;2023-03-14T00:19:06;10.40;99.90
16966;DHT22;8599;47.852;12.070;2023-03-14T00:21:33;10.40;99.90
16966;DHT22;8599;47.852;12.070;2023-03-14T00:24:00;10.30;99.90
16966;DHT22;8599;47.852;12.070;2023-03-14T00:26:27;10.30;99.90
16966;DHT22;8599;47.852;12.070;2023-03-14T00:28:54;10.20;99.90
16966;DHT22;8599;47.852;12.070;2023-03-14T00:31:22;10.20;99.90
16966;DHT22;8599;47.852;12.070;2023-03-14T00:33:51;10.10;99.90
16966;DHT22;8599;47.852;12.070;2023-03-14T00:36:19;10.00;99.90
16966;DHT22;8599;47.852;12.070;2023-03-14T00:38:47;9.90;99.90
16966;DHT22;8599;47.852;12.070;2023-03-14T00:41:17;9.90;99.90
16966;DHT22;8599;47.852;12.070;2023-03-14T00:43:44;10.10;99.90
16966;DHT22;8599;47.852;12.070;2023-03-14T00:46:12;10.00;99.90
16966;DHT22;8599;47.852;12.070;2023-03-14T00:48:38;9.90;99.90
16966;DHT22;8599;47.852;12.070;2023-03-14T00:51:08;9.70;99.90
16966;DHT22;8599;47.852;12.070;2023-03-14T00:53:38;9.70;99.90
16966;DHT22;8599;47.852;12.070;2023-03-14T00:56:07;9.70;99.90
16966;DHT22;8599;47.852;12.070;2023-03-14T00:58:34;9.60;99.90
16966;DHT22;8599;47.852;12.070;2023-03-14T01:01:05;9.50;99.90
16966;DHT22;8599;47.852;12.070;2023-03-14T01:03:33;9.60;99.90
16966;DHT22;8599;47.852;12.070;2023-03-14T01:06:09;9.60;99.90
16966;DHT22;8599;47.852;12.070;2023-03-14T01:08:36;9.60;99.90
16966;DHT22;8599;47.852;12.070;2023-03-14T01:11:06;9.60;99.90
16966;DHT22;8599;47.852;12.070;2023-03-14T01:13:33;9.60;99.90
16966;DHT22;8599;47.852;12.070;2023-03-14T01:16:02;9.60;99.90
16966;DHT22;8599;47.852;12.070;2023-03-14T01:18:30;9.60;99.90
16966;DHT22;8599;47.852;12.070;2023-03-14T01:20:57;9.60;99.90
16966;DHT22;8599;47.852;12.070;2023-03-14T01:23:25;9.60;99.90
16966;DHT22;8599;47.852;12.070;2023-03-14T01:25:52;9.50;99.90
16966;DHT22;8599;47.852;12.070;2023-03-14T01:28:19;9.40;99.90
16966;DHT22;8599;47.852;12.070;2023-03-14T01:30:46;9.30;99.90
16966;DHT22;8599;47.852;12.070;2023-03-14T01:33:12;9.30;99.90
16966;DHT22;8599;47.852;12.070;2023-03-14T01:35:40;9.30;99.90
16966;DHT22;8599;47.852;12.070;2023-03-14T01:38:07;9.30;99.90
16966;DHT22;8599;47.852;12.070;2023-03-14T01:40:41;9.20;99.90
16966;DHT22;8599;47.852;12.070;2023-03-14T01:43:14;9.20;99.90
16966;DHT22;8599;47.852;12.070;2023-03-14T01:46:16;9.20;99.90
16966;DHT22;8599;47.852;12.070;2023-03-14T01:48:48;9.20;99.90
16966;DHT22;8599;47.852;12.070;2023-03-14T01:51:20;9.20;99.90
16966;DHT22;8599;47.852;12.070;2023-03-14T01:53:49;9.20;99.90
16966;DHT22;8599;47.852;12.070;2023-03-14T01:56:18;9.20;99.90
16966;DHT22;8599;47.852;12.070;2023-03-14T01:58:48;9.20;99.90
16966;DHT22;8599;47.852;12.070;2023-03-14T02:01:16;9.30;99.90
16966;DHT22;8599;47.852;12.070;2023-03-14T02:03:48;9.30;99.90
16966;DHT22;8599;47.852;12.070;2023-03-14T02:06:19;9.30;99.90
16966;DHT22;8599;47.852;12.070;2023-03-14T02:08:46;9.30;99.90
16966;DHT22;8599;47.852;12.070;2023-03-14T02:11:15;9.30;99.90
16966;DHT22;8599;47.852;12.070;2023-03-14T02:13:44;9.30;99.90
16966;DHT22;8599;47.852;12.070;2023-03-14T02:16:11;9.40;99.90
16966;DHT22;8599;47.852;12.070;2023-03-14T02:18:39;9.40;99.90
16966;DHT22;8599;47.852;12.070;2023-03-14T02:21:13;9.40;99.90
16966;DHT22;8599;47.852;12.070;2023-03-14T02:23:48;9.30;99.90
16966;DHT22;8599;47.852;12.070;2023-03-14T02:26:22;9.30;99.90
16966;DHT22;8599;47.852;12.070;2023-03-14T02:28:51;9.20;99.90
16966;DHT22;8599;47.852;12.070;2023-03-14T02:31:18;9.30;99.90
16966;DHT22;8599;47.852;12.070;2023-03-14T02:33:46;9.30;99.90
16966;DHT22;8599;47.852;12.070;2023-03-14T02:36:14;9.30;99.90
16966;DHT22;8599;47.852;12.070;2023-03-14T02:38:47;9.30;99.90
16966;DHT22;8599;47.852;12.070;2023-03-14T02:41:14;9.40;99.90
16966;DHT22;8599;47.852;12.070;2023-03-14T02:43:41;9.40;99.90
16966;DHT22;8599;47.852;12.070;2023-03-14T02:46:10;9.50;99.90
16966;DHT22;8599;47.852;12.070;2023-03-14T02:48:41;9.60;99.90
16966;DHT22;8599;47.852;12.070;2023-03-14T02:51:10;9.60;99.90
16966;DHT22;8599;47.852;12.070;2023-03-14T02:53:38;9.60;99.90
16966;DHT22;8599;47.852;12.070;2023-03-14T02:56:07;9.50;99.90
16966;DHT22;8599;47.852;12.070;2023-03-14T02:58:34;9.60;99.90
16966;DHT22;8599;47.852;12.070;2023-03-14T03:01:02;9.60;99.90
16966;DHT22;8599;47.852;12.070;2023-03-14T03:03:30;9.60;99.90
16966;DHT22;8599;47.852;12.070;2023-03-14T03:05:57;9.60;99.90
16966;DHT22;8599;47.852;12.070;2023-03-14T03:08:26;9.50;99.90
16966;DHT22;8599;47.852;12.070;2023-03-14T03:10:53;9.50;99.90
16966;DHT22;8599;47.852;12.070;2023-03-14T03:13:20;9.50;99.90
16966;DHT22;8599;47.852;12.070;2023-03-14T03:15:47;9.50;99.90
16966;DHT22;8599;47.852;12.070;2023-03-14T03:18:13;9.50;99.90
16966;DHT22;8599;47.852;12.070;2023-03-14T03:20:42;9.50;99.90
16966;DHT22;8599;47.852;12.070;2023-03-14T03:23:08;9.60;99.90
16966;DHT22;8599;47.852;12.070;2023-03-14T03:25:35;9.50;99.90
16966;DHT22;8599;47.852;12.070;2023-03-14T03:28:02;9.60;99.90
16966;DHT22;8599;47.852;12.070;2023-03-14T03:30:33;9.70;99.90
16966;DHT22;8599;47.852;12.070;2023-03-14T03:33:00;9.80;99.90
16966;DHT22;8599;47.852;12.070;2023-03-14T03:35:27;9.60;99.90
16966;DHT22;8599;47.852;12.070;2023-03-14T03:37:55;9.70;99.90
16966;DHT22;8599;47.852;12.070;2023-03-14T03:40:22;9.70;99.90
16966;DHT22;8599;47.852;12.070;2023-03-14T03:42:49;9.80;99.90
16966;DHT22;8599;47.852;12.070;2023-03-14T03:45:16;9.80;99.90
16966;DHT22;8599;47.852;12.070;2023-03-14T03:47:42;9.90;99.90
16966;DHT22;8599;47.852;12.070;2023-03-14T03:50:10;9.80;99.90
16966;DHT22;8599;47.852;12.070;2023-03-14T03:52:37;9.60;99.90
16966;DHT22;8599;47.852;12.070;2023-03-14T03:55:05;9.60;99.90
16966;DHT22;8599;47.852;12.070;2023-03-14T03:57:32;9.60;99.90
16966;DHT22;8599;47.852;12.070;2023-03-14T03:59:59;9.50;99.90
16966;DHT22;8599;47.852;12.070;2023-03-14T04:02:26;9.40;99.90
16966;DHT22;8599;47.852;12.070;2023-03-14T04:04:53;9.30;99.90
16966;DHT22;8599;47.852;12.070;2023-03-14T04:07:20;9.30;99.90
16966;DHT22;8599;47.852;12.070;2023-03-14T04:09:46;9.10;99.90
16966;DHT22;8599;47.852;12.070;2023-03-14T04:12:14;9.20;99.90
16966;DHT22;8599;47.852;12.070;2023-03-14T04:14:41;9.20;99.90
16966;DHT22;8599;47.852;12.070;2023-03-14T04:17:08;9.40;99.90
16966;DHT22;8599;47.852;12.070;2023-03-14T04:19:35;9.30;99.90
16966;DHT22;8599;47.852;12.070;2023-03-14T04:22:02;9.20;99.90
16966;DHT22;8599;47.852;12.070;2023-03-14T04:24:28;9.30;99.90
16966;DHT22;8599;47.852;12.070;2023-03-14T04:26:55;9.20;99.90
16966;DHT22;8599;47.852;12.070;2023-03-14T04:29:24;9.20;99.90
16966;DHT22;8599;47.852;12.070;2023-03-14T04:31:51;9.10;99.90
16966;DHT22;8599;47.852;12.070;2023-03-14T04:34:17;9.10;99.90
16966;DHT22;8599;47.852;12.070;2023-03-14T04:36:44;9.10;99.90
16966;DHT22;8599;47.852;12.070;2023-03-14T04:39:11;9.10;99.90
16966;DHT22;8599;47.852;12.070;2023-03-14T04:41:38;9.10;99.90
16966;DHT22;8599;47.852;12.070;2023-03-14T04:44:04;9.20;99.90
16966;DHT22;8599;47.852;12.070;2023-03-14T04:46:33;9.20;99.90
16966;DHT22;8599;47.852;12.070;2023-03-14T04:48:59;9.30;99.90
16966;DHT22;8599;47.852;12.070;2023-03-14T04:51:26;9.20;99.90
16966;DHT22;8599;47.852;12.070;2023-03-14T04:53:53;9.20;99.90
16966;DHT22;8599;47.852;12.070;2023-03-14T04:56:21;9.10;99.90
16966;DHT22;8599;47.852;12.070;2023-03-14T04:58:47;9.10;99.90
16966;DHT22;8599;47.852;12.070;2023-03-14T05:01:14;9.10;99.90
16966;DHT22;8599;47.852;12.070;2023-03-14T05:03:43;9.10;99.90
16966;DHT22;8599;47.852;12.070;2023-03-14T05:06:10;9.00;99.90
16966;DHT22;8599;47.852;12.070;2023-03-14T05:08:37;9.10;99.90
16966;DHT22;8599;47.852;12.070;2023-03-14T05:11:04;9.10;99.90
16966;DHT22;8599;47.852;12.070;2023-03-14T05:13:31;9.40;99.90
16966;DHT22;8599;47.852;12.070;2023-03-14T05:16:04;9.50;99.90
16966;DHT22;8599;47.852;12.070;2023-03-14T05:18:31;9.40;99.90
16966;DHT22;8599;47.852;12.070;2023-03-14T05:20:59;9.30;99.90
16966;DHT22;8599;47.852;12.070;2023-03-14T05:23:26;9.20;99.90
16966;DHT22;8599;47.852;12.070;2023-03-14T05:25:53;9.10;99.90
16966;DHT22;8599;47.852;12.070;2023-03-14T05:28:20;9.00;99.90
16966;DHT22;8599;47.852;12.070;2023-03-14T05:30:47;9.00;99.90
16966;DHT22;8599;47.852;12.070;2023-03-14T05:33:14;9.00;99.90
16966;DHT22;8599;47.852;12.070;2023-03-14T05:35:41;8.90;99.90
16966;DHT22;8599;47.852;12.070;2023-03-14T05:38:10;8.90;99.90
16966;DHT22;8599;47.852;12.070;2023-03-14T05:40:36;8.90;99.90
16966;DHT22;8599;47.852;12.070;2023-03-14T05:43:03;8.90;99.90
16966;DHT22;8599;47.852;12.070;2023-03-14T05:45:30;8.90;99.90
16966;DHT22;8599;47.852;12.070;2023-03-14T05:47:57;8.80;99.90
16966;DHT22;8599;47.852;12.070;2023-03-14T05:50:24;8.80;99.90
16966;DHT22;8599;47.852;12.070;2023-03-14T05:52:50;8.80;99.90
16966;DHT22;8599;47.852;12.070;2023-03-14T05:55:19;8.70;99.90
16966;DHT22;8599;47.852;12.070;2023-03-14T05:57:46;8.80;99.90
16966;DHT22;8599;47.852;12.070;2023-03-14T06:00:13;8.90;99.90
16966;DHT22;8599;47.852;12.070;2023-03-14T06:02:40;8.80;99.90
16966;DHT22;8599;47.852;12.070;2023-03-14T06:05:07;8.90;99.90
16966;DHT22;8599;47.852;12.070;2023-03-14T06:07:34;8.90;99.90
16966;DHT22;8599;47.852;12.070;2023-03-14T06:10:01;8.80;99.90
16966;DHT22;8599;47.852;12.070;2023-03-14T06:12:30;8.80;99.90
16966;DHT22;8599;47.852;12.070;2023-03-14T06:14:57;8.80;99.90
16966;DHT22;8599;47.852;12.070;2023-03-14T06:17:23;8.80;99.90
16966;DHT22;8599;47.852;12.070;2023-03-14T06:19:50;8.70;99.90
16966;DHT22;8599;47.852;12.070;2023-03-14T06:22:17;8.70;99.90
16966;DHT22;8599;47.852;12.070;2023-03-14T06:24:45;8.80;99.90
16966;DHT22;8599;47.852;12.070;2023-03-14T06:27:11;8.70;99.90
16966;DHT22;8599;47.852;12.070;2023-03-14T06:29:39;8.70;99.90
16966;DHT22;8599;47.852;12.070;2023-03-14T06:32:06;8.80;99.90
16966;DHT22;8599;47.852;12.070;2023-03-14T06:34:34;8.80;99.90
16966;DHT22;8599;47.852;12.070;2023-03-14T06:37:01;8.80;99.90
16966;DHT22;8599;47.852;12.070;2023-03-14T06:39:28;8.80;99.90
16966;DHT22;8599;47.852;12.070;2023-03-14T06:41:56;8.90;99.90
16966;DHT22;8599;47.852;12.070;2023-03-14T06:44:23;8.90;99.90
16966;DHT22;8599;47.852;12.070;2023-03-14T06:46:51;9.00;99.90
16966;DHT22;8599;47.852;12.070;2023-03-14T06:49:18;9.00;99.90
16966;DHT22;8599;47.852;12.070;2023-03-14T06:51:45;9.00;99.90
16966;DHT22;8599;47.852;12.070;2023-03-14T06:54:12;9.10;99.90
16966;DHT22;8599;47.852;12.070;2023-03-14T06:56:38;9.00;99.90
16966;DHT22;8599;47.852;12.070;2023-03-14T06:59:05;9.10;99.90
16966;DHT22;8599;47.852;12.070;2023-03-14T07:01:32;9.00;99.90
16966;DHT22;8599;47.852;12.070;2023-03-14T07:04:02;9.00;99.90
16966;DHT22;8599;47.852;12.070;2023-03-14T07:06:29;9.00;99.90
16966;DHT22;8599;47.852;12.070;2023-03-14T07:08:56;9.00;99.90
16966;DHT22;8599;47.852;12.070;2023-03-14T07:11:23;9.00;99.90
16966;DHT22;8599;47.852;12.070;2023-03-14T07:13:50;8.90;99.90
16966;DHT22;8599;47.852;12.070;2023-03-14T07:16:17;8.80;99.90
16966;DHT22;8599;47.852;12.070;2023-03-14T07:18:44;8.90;99.90
16966;DHT22;8599;47.852;12.070;2023-03-14T07:21:12;8.80;99.90
16966;DHT22;8599;47.852;12.070;2023-03-14T07:23:39;8.80;99.90
16966;DHT22;8599;47.852;12.070;2023-03-14T07:26:06;8.80;99.90
16966;DHT22;8599;47.852;12.070;2023-03-14T07:28:33;8.80;99.90
16966;DHT22;8599;47.852;12.070;2023-03-14T07:30:59;8.80;99.90
16966;DHT22;8599;47.852;12.070;2023-03-14T07:33:26;8.80;99.90
16966;DHT22;8599;47.852;12.070;2023-03-14T07:35:53;8.80;99.90
16966;DHT22;8599;47.852;12.070;2023-03-14T07:38:21;8.90;99.90
16966;DHT22;8599;47.852;12.070;2023-03-14T07:40:48;8.90;99.90
16966;DHT22;8599;47.852;12.070;2023-03-14T07:43:15;8.90;99.90
16966;DHT22;8599;47.852;12.070;2023-03-14T07:45:45;8.80;99.90
16966;DHT22;8599;47.852;12.070;2023-03-14T07:48:11;8.80;99.90
16966;DHT22;8599;47.852;12.070;2023-03-14T07:50:38;8.80;99.90
16966;DHT22;8599;47.852;12.070;2023-03-14T07:53:05;8.80;99.90
16966;DHT22;8599;47.852;12.070;2023-03-14T07:55:33;8.90;99.90
16966;DHT22;8599;47.852;12.070;2023-03-14T07:58:00;8.90;99.90
16966;DHT22;8599;47.852;12.070;2023-03-14T08:00:27;8.90;99.90
16966;DHT22;8599;47.852;12.070;2023-03-14T08:02:55;8.90;99.90
16966;DHT22;8599;47.852;12.070;2023-03-14T08:05:23;8.90;99.90
16966;DHT22;8599;47.852;12.070;2023-03-14T08:07:50;8.90;99.90
16966;DHT22;8599;47.852;12.070;2023-03-14T08:10:16;8.90;99.90
16966;DHT22;8599;47.852;12.070;2023-03-14T08:12:52;8.90;99.90
16966;DHT22;8599;47.852;12.070;2023-03-14T08:15:20;8.90;99.90
16966;DHT22;8599;47.852;12.070;2023-03-14T08:17:47;9.00;99.90
16966;DHT22;8599;47.852;12.070;2023-03-14T08:20:16;9.00;99.90
16966;DHT22;8599;47.852;12.070;2023-03-14T08:22:43;8.90;99.90
16966;DHT22;8599;47.852;12.070;2023-03-14T08:25:10;8.90;99.90
16966;DHT22;8599;47.852;12.070;2023-03-14T08:27:37;8.90;99.90
16966;DHT22;8599;47.852;12.070;2023-03-14T08:30:07;8.80;99.90
16966;DHT22;8599;47.852;12.070;2023-03-14T08:32:35;8.80;99.90
16966;DHT22;8599;47.852;12.070;2023-03-14T08:35:02;8.90;99.90
16966;DHT22;8599;47.852;12.070;2023-03-14T08:37:30;8.90;99.90
16966;DHT22;8599;47.852;12.070;2023-03-14T08:39:57;8.80;99.90
16966;DHT22;8599;47.852;12.070;2023-03-14T08:42:24;8.80;99.90
16966;DHT22;8599;47.852;12.070;2023-03-14T08:44:51;8.90;99.90
16966;DHT22;8599;47.852;12.070;2023-03-14T08:47:20;9.00;99.90
16966;DHT22;8599;47.852;12.070;2023-03-14T08:49:46;9.00;99.90
16966;DHT22;8599;47.852;12.070;2023-03-14T08:52:13;8.80;99.90
16966;DHT22;8599;47.852;12.070;2023-03-14T08:54:41;8.80;99.90
16966;DHT22;8599;47.852;12.070;2023-03-14T08:57:08;8.90;99.90
16966;DHT22;8599;47.852;12.070;2023-03-14T08:59:35;8.90;99.90
16966;DHT22;8599;47.852;12.070;2023-03-14T09:02:02;8.90;99.90
16966;DHT22;8599;47.852;12.070;2023-03-14T09:04:31;9.00;99.90
16966;DHT22;8599;47.852;12.070;2023-03-14T09:06:58;9.20;99.90
16966;DHT22;8599;47.852;12.070;2023-03-14T09:09:26;9.20;99.90
16966;DHT22;8599;47.852;12.070;2023-03-14T09:11:53;9.00;99.90
16966;DHT22;8599;47.852;12.070;2023-03-14T09:14:20;9.00;99.90
16966;DHT22;8599;47.852;12.070;2023-03-14T09:16:47;9.00;99.90
16966;DHT22;8599;47.852;12.070;2023-03-14T09:19:13;8.80;99.90
16966;DHT22;8599;47.852;12.070;2023-03-14T09:21:41;8.80;99.90
16966;DHT22;8599;47.852;12.070;2023-03-14T09:24:08;8.80;99.90
16966;DHT22;8599;47.852;12.070;2023-03-14T09:26:35;8.80;99.90
16966;DHT22;8599;47.852;12.070;2023-03-14T09:29:02;8.90;99.90
16966;DHT22;8599;47.852;12.070;2023-03-14T09:31:29;9.00;99.90
16966;DHT22;8599;47.852;12.070;2023-03-14T09:33:56;8.90;99.90
16966;DHT22;8599;47.852;12.070;2023-03-14T09:36:22;9.30;99.90
16966;DHT22;8599;47.852;12.070;2023-03-14T09:38:51;9.40;99.90
16966;DHT22;8599;47.852;12.070;2023-03-14T09:41:21;9.50;99.90
16966;DHT22;8599;47.852;12.070;2023-03-14T09:43:49;9.30;99.90
16966;DHT22;8599;47.852;12.070;2023-03-14T09:46:20;9.30;99.90
16966;DHT22;8599;47.852;12.070;2023-03-14T09:48:47;9.20;99.90
16966;DHT22;8599;47.852;12.070;2023-03-14T09:51:17;9.20;99.90
16966;DHT22;8599;47.852;12.070;2023-03-14T09:53:48;9.20;99.90
16966;DHT22;8599;47.852;12.070;2023-03-14T09:56:19;9.30;99.90
16966;DHT22;8599;47.852;12.070;2023-03-14T09:58:51;9.30;99.90
16966;DHT22;8599;47.852;12.070;2023-03-14T10:01:22;9.30;99.90
16966;DHT22;8599;47.852;12.070;2023-03-14T10:03:51;9.30;99.90
16966;DHT22;8599;47.852;12.070;2023-03-14T10:06:20;9.30;99.90
16966;DHT22;8599;47.852;12.070;2023-03-14T10:08:49;9.10;99.90
16966;DHT22;8599;47.852;12.070;2023-03-14T10:11:18;9.10;99.90
16966;DHT22;8599;47.852;12.070;2023-03-14T10:13:50;9.10;99.90
16966;DHT22;8599;47.852;12.070;2023-03-14T10:16:29;9.10;99.90
16966;DHT22;8599;47.852;12.070;2023-03-14T10:19:02;9.00;99.90
16966;DHT22;8599;47.852;12.070;2023-03-14T10:21:31;9.00;99.90
16966;DHT22;8599;47.852;12.070;2023-03-14T10:24:19;8.90;99.90
16966;DHT22;8599;47.852;12.070;2023-03-14T10:26:49;9.00;99.90
16966;DHT22;8599;47.852;12.070;2023-03-14T10:29:18;9.00;99.90
16966;DHT22;8599;47.852;12.070;2023-03-14T10:31:50;9.00;99.90
16966;DHT22;8599;47.852;12.070;2023-03-14T10:34:22;9.00;99.90
16966;DHT22;8599;47.852;12.070;2023-03-14T10:36:53;9.00;99.90
16966;DHT22;8599;47.852;12.070;2023-03-14T10:39:35;9.10;99.90
16966;DHT22;8599;47.852;12.070;2023-03-14T10:42:16;9.20;99.90
16966;DHT22;8599;47.852;12.070;2023-03-14T10:44:44;9.20;99.90
16966;DHT22;8599;47.852;12.070;2023-03-14T10:47:17;9.40;99.90
16966;DHT22;8599;47.852;12.070;2023-03-14T10:49:44;9.40;99.90
16966;DHT22;8599;47.852;12.070;2023-03-14T10:52:20;9.30;99.90
16966;DHT22;8599;47.852;12.070;2023-03-14T10:54:54;9.30;99.90
16966;DHT22;8599;47.852;12.070;2023-03-14T10:57:23;9.20;99.90
16966;DHT22;8599;47.852;12.070;2023-03-14T10:59:51;9.10;99.90
16966;DHT22;8599;47.852;12.070;2023-03-14T11:02:32;9.10;99.90
16966;DHT22;8599;47.852;12.070;2023-03-14T11:05:08;9.00;99.90
16966;DHT22;8599;47.852;12.070;2023-03-14T11:07:39;9.00;99.90
16966;DHT22;8599;47.852;12.070;2023-03-14T11:10:13;9.10;99.90
16966;DHT22;8599;47.852;12.070;2023-03-14T11:12:53;9.20;99.90
16966;DHT22;8599;47.852;12.070;2023-03-14T11:15:25;9.20;99.90
16966;DHT22;8599;47.852;12.070;2023-03-14T11:18:12;9.30;99.90
16966;DHT22;8599;47.852;12.070;2023-03-14T11:20:46;9.30;99.90
16966;DHT22;8599;47.852;12.070;2023-03-14T11:23:21;9.30;99.90
16966;DHT22;8599;47.852;12.070;2023-03-14T11:25:54;9.50;99.90
16966;DHT22;8599;47.852;12.070;2023-03-14T11:28:29;9.50;99.90
16966;DHT22;8599;47.852;12.070;2023-03-14T11:31:06;9.60;99.90
16966;DHT22;8599;47.852;12.070;2023-03-14T11:33:38;9.70;99.90
16966;DHT22;8599;47.852;12.070;2023-03-14T11:36:07;9.90;99.90
16966;DHT22;8599;47.852;12.070;2023-03-14T11:38:37;10.00;99.90
16966;DHT22;8599;47.852;12.070;2023-03-14T11:41:12;10.10;99.90
16966;DHT22;8599;47.852;12.070;2023-03-14T11:43:42;10.20;99.90
16966;DHT22;8599;47.852;12.070;2023-03-14T11:46:18;10.30;99.90
16966;DHT22;8599;47.852;12.070;2023-03-14T11:48:55;10.50;99.90
16966;DHT22;8599;47.852;12.070;2023-03-14T11:51:26;10.60;99.90
16966;DHT22;8599;47.852;12.070;2023-03-14T11:53:58;10.70;99.90
16966;DHT22;8599;47.852;12.070;2023-03-14T11:56:32;10.90;99.90
16966;DHT22;8599;47.852;12.070;2023-03-14T11:59:04;11.10;99.90
16966;DHT22;8599;47.852;12.070;2023-03-14T12:01:44;11.20;99.90
16966;DHT22;8599;47.852;12.070;2023-03-14T12:04:20;11.50;99.90
16966;DHT22;8599;47.852;12.070;2023-03-14T12:06:49;11.70;99.90
16966;DHT22;8599;47.852;12.070;2023-03-14T12:09:18;11.90;99.90
16966;DHT22;8599;47.852;12.070;2023-03-14T12:11:49;12.00;99.90
16966;DHT22;8599;47.852;12.070;2023-03-14T12:14:25;11.90;99.90
16966;DHT22;8599;47.852;12.070;2023-03-14T12:16:54;11.80;99.90
16966;DHT22;8599;47.852;12.070;2023-03-14T12:19:37;11.70;99.90
16966;DHT22;8599;47.852;12.070;2023-03-14T12:22:26;11.50;99.90
16966;DHT22;8599;47.852;12.070;2023-03-14T12:24:57;11.50;99.90
16966;DHT22;8599;47.852;12.070;2023-03-14T12:27:49;11.40;99.90
16966;DHT22;8599;47.852;12.070;2023-03-14T12:30:32;11.30;99.90
16966;DHT22;8599;47.852;12.070;2023-03-14T12:33:32;11.30;99.90
16966;DHT22;8599;47.852;12.070;2023-03-14T12:36:12;11.20;99.90
16966;DHT22;8599;47.852;12.070;2023-03-14T12:38:56;11.20;99.90
16966;DHT22;8599;47.852;12.070;2023-03-14T12:41:27;11.20;99.90
16966;DHT22;8599;47.852;12.070;2023-03-14T12:43:55;11.30;99.90
16966;DHT22;8599;47.852;12.070;2023-03-14T12:46:25;11.30;99.90
16966;DHT22;8599;47.852;12.070;2023-03-14T12:49:03;11.30;99.90
16966;DHT22;8599;47.852;12.070;2023-03-14T12:51:35;11.30;99.90
16966;DHT22;8599;47.852;12.070;2023-03-14T12:54:13;11.30;99.90
16966;DHT22;8599;47.852;12.070;2023-03-14T12:56:54;11.30;99.90
16966;DHT22;8599;47.852;12.070;2023-03-14T12:59:31;11.20;99.90
16966;DHT22;8599;47.852;12.070;2023-03-14T13:02:12;11.30;99.90
16966;DHT22;8599;47.852;12.070;2023-03-14T13:04:45;11.10;99.90
16966;DHT22;8599;47.852;12.070;2023-03-14T13:07:15;11.10;99.90
16966;DHT22;8599;47.852;12.070;2023-03-14T13:09:56;11.00;99.90
16966;DHT22;8599;47.852;12.070;2023-03-14T13:12:37;11.00;99.90
16966;DHT22;8599;47.852;12.070;2023-03-14T13:15:15;11.00;99.90
16966;DHT22;8599;47.852;12.070;2023-03-14T13:17:46;10.90;99.90
16966;DHT22;8599;47.852;12.070;2023-03-14T13:20:18;10.80;99.90
16966;DHT22;8599;47.852;12.070;2023-03-14T13:22:48;10.80;99.90
16966;DHT22;8599;47.852;12.070;2023-03-14T13:25:15;10.80;99.90
16966;DHT22;8599;47.852;12.070;2023-03-14T13:27:44;10.70;99.90
16966;DHT22;8599;47.852;12.070;2023-03-14T13:30:21;10.80;99.90
16966;DHT22;8599;47.852;12.070;2023-03-14T13:32:51;10.70;99.90
16966;DHT22;8599;47.852;12.070;2023-03-14T13:35:21;10.80;99.90
16966;DHT22;8599;47.852;12.070;2023-03-14T13:37:53;10.80;99.90
16966;DHT22;8599;47.852;12.070;2023-03-14T13:40:25;10.90;99.90
16966;DHT22;8599;47.852;12.070;2023-03-14T13:43:04;11.10;99.90
16966;DHT22;8599;47.852;12.070;2023-03-14T13:45:44;11.20;99.90
16966;DHT22;8599;47.852;12.070;2023-03-14T13:48:13;11.40;99.90
16966;DHT22;8599;47.852;12.070;2023-03-14T13:50:54;11.50;99.90
16966;DHT22;8599;47.852;12.070;2023-03-14T13:53:22;11.50;99.90
16966;DHT22;8599;47.852;12.070;2023-03-14T13:55:49;11.70;99.90
16966;DHT22;8599;47.852;12.070;2023-03-14T13:58:22;11.70;99.90
16966;DHT22;8599;47.852;12.070;2023-03-14T14:00:58;11.80;99.90
16966;DHT22;8599;47.852;12.070;2023-03-14T14:03:28;11.90;99.90
16966;DHT22;8599;47.852;12.070;2023-03-14T14:05:57;11.90;99.90
16966;DHT22;8599;47.852;12.070;2023-03-14T14:08:25;12.00;99.90
16966;DHT22;8599;47.852;12.070;2023-03-14T14:10:56;12.20;99.90
16966;DHT22;8599;47.852;12.070;2023-03-14T14:13:24;12.10;99.90
16966;DHT22;8599;47.852;12.070;2023-03-14T14:15:54;12.00;99.90
16966;DHT22;8599;47.852;12.070;2023-03-14T14:18:24;11.80;99.90
16966;DHT22;8599;47.852;12.070;2023-03-14T14:20:55;11.50;99.90
16966;DHT22;8599;47.852;12.070;2023-03-14T14:23:24;11.40;99.90
16966;DHT22;8599;47.852;12.070;2023-03-14T14:25:55;11.20;99.90
16966;DHT22;8599;47.852;12.070;2023-03-14T14:28:25;11.10;99.90
16966;DHT22;8599;47.852;12.070;2023-03-14T14:31:02;11.00;99.90
16966;DHT22;8599;47.852;12.070;2023-03-14T14:33:38;10.90;99.90
16966;DHT22;8599;47.852;12.070;2023-03-14T14:36:18;10.90;99.90
16966;DHT22;8599;47.852;12.070;2023-03-14T14:38:53;10.80;99.90
16966;DHT22;8599;47.852;12.070;2023-03-14T14:41:20;10.80;99.90
16966;DHT22;8599;47.852;12.070;2023-03-14T14:43:47;10.80;99.90
16966;DHT22;8599;47.852;12.070;2023-03-14T14:46:18;10.80;99.90
16966;DHT22;8599;47.852;12.070;2023-03-14T14:48:46;10.70;99.90
16966;DHT22;8599;47.852;12.070;2023-03-14T14:51:26;10.60;99.90
16966;DHT22;8599;47.852;12.070;2023-03-14T14:54:04;10.60;99.90
16966;DHT22;8599;47.852;12.070;2023-03-14T14:56:36;10.50;99.90
16966;DHT22;8599;47.852;12.070;2023-03-14T14:59:05;10.40;99.90
16966;DHT22;8599;47.852;12.070;2023-03-14T15:01:34;10.30;99.90
16966;DHT22;8599;47.852;12.070;2023-03-14T15:04:04;10.10;99.90
16966;DHT22;8599;47.852;12.070;2023-03-14T15:06:37;9.90;99.90
16966;DHT22;8599;47.852;12.070;2023-03-14T15:09:05;9.80;99.90
16966;DHT22;8599;47.852;12.070;2023-03-14T15:11:32;9.60;99.90
16966;DHT22;8599;47.852;12.070;2023-03-14T15:13:59;9.30;99.90
16966;DHT22;8599;47.852;12.070;2023-03-14T15:16:28;9.10;99.90
16966;DHT22;8599;47.852;12.070;2023-03-14T15:18:57;9.00;99.90
16966;DHT22;8599;47.852;12.070;2023-03-14T15:21:25;8.80;99.90
16966;DHT22;8599;47.852;12.070;2023-03-14T15:23:54;8.60;99.90
16966;DHT22;8599;47.852;12.070;2023-03-14T15:26:22;8.50;99.90
16966;DHT22;8599;47.852;12.070;2023-03-14T15:28:50;8.60;99.90
16966;DHT22;8599;47.852;12.070;2023-03-14T15:31:17;8.60;99.90
16966;DHT22;8599;47.852;12.070;2023-03-14T15:33:46;8.70;99.90
16966;DHT22;8599;47.852;12.070;2023-03-14T15:36:20;8.70;99.90
16966;DHT22;8599;47.852;12.070;2023-03-14T15:38:48;8.80;99.90
16966;DHT22;8599;47.852;12.070;2023-03-14T15:41:16;8.80;99.90
16966;DHT22;8599;47.852;12.070;2023-03-14T15:43:43;8.80;99.90
16966;DHT22;8599;47.852;12.070;2023-03-14T15:46:10;8.80;99.90
16966;DHT22;8599;47.852;12.070;2023-03-14T15:48:37;8.90;99.90
16966;DHT22;8599;47.852;12.070;2023-03-14T15:51:05;9.00;99.90
16966;DHT22;8599;47.852;12.070;2023-03-14T15:53:31;9.20;99.90
16966;DHT22;8599;47.852;12.070;2023-03-14T15:55:58;9.20;99.90
16966;DHT22;8599;47.852;12.070;2023-03-14T15:58:26;9.20;99.90